Plum Branch, SC (29845)

9:10 AM EDT on August 21, 2014 (GMT -0400)
Plum Branch South Carolina | Change Station
CLOSE
Current Station
Personal Weather Station
Location: Plum Branch, SC
Elevation: 354 ft
Nearby Weather Stations

Elev 354 ft 33.81 °N, 82.31 °W | Updated 2 seconds ago

Clear
Clear
77.5 °F
Feels Like 76 °F
N
3.6
Wind Variable Wind from SW
Gusts 6.0 mph

Today
High -- | Low -- °F
--% Chance of Precip.
Yesterday
High -- | Low -- °F
Precip. -- in
6:55 AM 8:08 PM
Waning Crescent, 14% visible
Pressure 30.15 in
Visibility 10.0 miles
Clouds Clear
Heat Index 76 °F
Dew Point -17 °F
Humidity 2%
Rainfall 0.00 in
Snow Depth Not available.
UV 2 out of 12
Pollen 7.80 out of 12
Ozone Good
PM2.5 Moderate
Flu Activity Not available.
METAR KHQU 211255Z AUTO 00000KT 10SM CLR 25/23 A3015 RMK AO1 T02490233

More Conditions Fewer Conditions

Pressure 30.15 in
Visibility 10.0 miles
Clouds Clear
Heat Index 76 °F
Dew Point -17 °F
Humidity 2%
Rainfall 0.00 in
Snow Depth Not available.
UV 2 out of 12
Pollen 7.80 out of 12
Ozone Good
PM2.5 Moderate
Flu Activity Not available.
METAR KHQU 211255Z AUTO 00000KT 10SM CLR 25/23 A3015 RMK AO1 T02490233

More Conditions Fewer Conditions

10-Day Weather Forecast

Almanac

Astronomy

Aug. 21, 2014 Rise Set
Actual Time 6:55 AM EDT 8:08 PM EDT
Civil Twilight 6:29 AM EDT 8:34 PM EDT
Nautical Twilight 5:58 AM EDT 9:05 PM EDT
Astronomical Twilight 5:25 AM EDT 9:37 PM EDT
Moon 3:28 AM EDT 5:32 PM EDT
Length of Visible Light 14h 05m
Length of Day
13h 13m
Tomorrow will be 1m 54s shorter.
Waning Crescent, 14% of the Moon is Illuminated
Today
Waning Crescent
Aug 25
New
Sep 2
First Quarter
Sep 8
Full
Sep 15
Last Quarter

Today's Extremes

State Highs State Lows

Community

WunderPhotos

Upload Photos

1,745,916 photos uploaded!

WunderBlogs® & News

By Dr. Jeff Masters
Director of Meteorology, Weather Underground
By Kari Strenfel
Meteorologist, Weather Underground
By Christopher C. Burt
Weather Historian, Weather Underground
August 21, 2014
August 21, 2014
August 21, 2014

Nearby

Air Quality

  Air Quality AQ Index Pollutant
Yesterday Good
PM2.5
Yesterday Good
OZONE
Current Moderate
PM2.5
Current Good
OZONE
Thursday Good
OZONE

Snow Depth

Station Depth Elevation
No new snow has been reported.

Earthquake Activity

City Distance Mag. Time & Date
No recent earthquake activity has been reported nearby.
Minimum magnitude displayed is 2.5.

Coastal Water Temperatures

Place Temperature
No Stations Reporting

Nearby Weather Stations